PWSweather.com
Personal Weather Stations
Station Observations
WD4JKH
Forsyth, GA 31029

Forsyth, GA 31029

Lat: 33.033225, Lon: -83.927995

Elevation: 709

Station Type: Davis Vantage VUE

High Low Average
Temperature 72.7°F22.6°C 62.2°F16.8°C 65.1°F18.4°C
Dew Point 66.9°F19.4°C 61.3°F16.3°C 63.5°F17.5°C
Winds 6.3 mph 10.1 kmh Calm Calm 2.0 mph S3.2 kmh S
Wind Gusts 14.0 mph22.5 kmh -- 5.0 mph8.0 kmh
Humidity 98% 78% 95%
Pressure 29.86 in1011.2 mb 29.69 in1005.4 mb -
Precipitation 2.05 in52.1 mm - -
Hour Temp Dew Point Humidity Winds Wind Gusts Pressure Precip Precip Rate Daily Precip Total
12:01 AM 64.6°F18.1°C 62.8°F17.1°C 94% 1.7 mph SW2.7 kmh SW 5.0 mph8.0 kmh 29.86 in1011.2 mb 0.00 in0.0 mm 0.00 in0.0 mm 0.00 in0.0 mm
12:06 AM 64.6°F18.1°C 62.8°F17.1°C 94% 2.1 mph SW3.4 kmh SW 6.0 mph9.7 kmh 29.85 in1010.8 mb 0.00 in0.0 mm 0.00 in0.0 mm 0.00 in0.0 mm
12:11 AM 64.7°F18.2°C 62.9°F17.2°C 94% 2.2 mph SW3.5 kmh SW 6.0 mph9.7 kmh 29.85 in1010.8 mb 0.00 in0.0 mm 0.00 in0.0 mm 0.00 in0.0 mm
12:16 AM 64.8°F18.2°C 63.0°F17.2°C 94% 2.6 mph SW4.2 kmh SW 6.0 mph9.7 kmh 29.85 in1010.8 mb 0.00 in0.0 mm 0.00 in0.0 mm 0.00 in0.0 mm
12:21 AM 64.8°F18.2°C 63.0°F17.2°C 94% 1.9 mph SW3.1 kmh SW 7.0 mph11.3 kmh 29.85 in1010.8 mb 0.00 in0.0 mm 0.00 in0.0 mm 0.00 in0.0 mm
12:26 AM 64.7°F18.2°C 62.9°F17.2°C 94% 1.3 mph SW2.1 kmh SW 7.0 mph11.3 kmh 29.85 in1010.8 mb 0.00 in0.0 mm 0.00 in0.0 mm 0.00 in0.0 mm
12:31 AM 64.7°F18.2°C 62.9°F17.2°C 94% 1.4 mph SW2.3 kmh SW 7.0 mph11.3 kmh 29.85 in1010.8 mb 0.00 in0.0 mm 0.00 in0.0 mm 0.00 in0.0 mm
12:36 AM 64.6°F18.1°C 63.1°F17.3°C 95% 1.4 mph SW2.3 kmh SW 7.0 mph11.3 kmh 29.85 in1010.8 mb 0.00 in0.0 mm 0.00 in0.0 mm 0.00 in0.0 mm
12:41 AM 64.7°F18.2°C 63.2°F17.3°C 95% 2.0 mph SW3.2 kmh SW 6.0 mph9.7 kmh 29.84 in1010.5 mb 0.00 in0.0 mm 0.00 in0.0 mm 0.00 in0.0 mm
12:46 AM 64.7°F18.2°C 63.2°F17.3°C 95% 3.0 mph SW4.8 kmh SW 6.0 mph9.7 kmh 29.84 in1010.5 mb 0.00 in0.0 mm 0.00 in0.0 mm 0.00 in0.0 mm
12:51 AM 64.7°F18.2°C 63.2°F17.3°C 95% 1.6 mph SW2.6 kmh SW 6.0 mph9.7 kmh 29.84 in1010.5 mb 0.00 in0.0 mm 0.00 in0.0 mm 0.00 in0.0 mm
12:56 AM 64.7°F18.2°C 63.2°F17.3°C 95% 1.8 mph SW2.9 kmh SW 6.0 mph9.7 kmh 29.84 in1010.5 mb 0.00 in0.0 mm 0.00 in0.0 mm 0.00 in0.0 mm
01:01 AM 64.7°F18.2°C 63.2°F17.3°C 95% 1.5 mph SW2.4 kmh SW 5.0 mph8.0 kmh 29.84 in1010.5 mb 0.00 in0.0 mm 0.00 in0.0 mm 0.00 in0.0 mm
01:06 AM 64.7°F18.2°C 63.2°F17.3°C 95% 1.5 mph WSW2.4 kmh WSW 4.0 mph6.4 kmh 29.84 in1010.5 mb 0.00 in0.0 mm 0.00 in0.0 mm 0.00 in0.0 mm
01:11 AM 64.7°F18.2°C 63.2°F17.3°C 95% 1.1 mph SW1.8 kmh SW 4.0 mph6.4 kmh 29.83 in1010.2 mb 0.00 in0.0 mm 0.00 in0.0 mm 0.00 in0.0 mm
01:16 AM 64.7°F18.2°C 63.2°F17.3°C 95% 1.1 mph SW1.8 kmh SW 4.0 mph6.4 kmh 29.83 in1010.2 mb 0.00 in0.0 mm 0.00 in0.0 mm 0.00 in0.0 mm
01:20 AM 64.7°F18.2°C 63.2°F17.3°C 95% 1.3 mph SW2.1 kmh SW 3.0 mph4.8 kmh 29.84 in1010.5 mb 0.00 in0.0 mm 0.00 in0.0 mm 0.00 in0.0 mm
01:25 AM 64.7°F18.2°C 63.2°F17.3°C 95% 2.9 mph SW4.7 kmh SW 6.0 mph9.7 kmh 29.84 in1010.5 mb 0.00 in0.0 mm 0.00 in0.0 mm 0.00 in0.0 mm
01:30 AM 64.6°F18.1°C 63.1°F17.3°C 95% 1.8 mph SW2.9 kmh SW 6.0 mph9.7 kmh 29.84 in1010.5 mb 0.00 in0.0 mm 0.00 in0.0 mm 0.00 in0.0 mm
01:35 AM 64.6°F18.1°C 63.4°F17.4°C 96% 2.1 mph SW3.4 kmh SW 6.0 mph9.7 kmh 29.84 in1010.5 mb 0.00 in0.0 mm 0.00 in0.0 mm 0.00 in0.0 mm
01:40 AM 64.6°F18.1°C 63.4°F17.4°C 96% 1.3 mph SW2.1 kmh SW 6.0 mph9.7 kmh 29.83 in1010.2 mb 0.00 in0.0 mm 0.00 in0.0 mm 0.00 in0.0 mm
01:45 AM 64.6°F18.1°C 63.4°F17.4°C 96% 1.4 mph SW2.3 kmh SW 5.0 mph8.0 kmh 29.83 in1010.2 mb 0.00 in0.0 mm 0.00 in0.0 mm 0.00 in0.0 mm
01:50 AM 64.5°F18.1°C 63.3°F17.4°C 96% 1.6 mph SW2.6 kmh SW 5.0 mph8.0 kmh 29.83 in1010.2 mb 0.00 in0.0 mm 0.00 in0.0 mm 0.00 in0.0 mm
01:55 AM 64.5°F18.1°C 63.3°F17.4°C 96% 2.3 mph SW3.7 kmh SW 5.0 mph8.0 kmh 29.83 in1010.2 mb 0.00 in0.0 mm 0.00 in0.0 mm 0.00 in0.0 mm
02:00 AM 64.4°F18.0°C 63.2°F17.3°C 96% 2.4 mph SW3.9 kmh SW 6.0 mph9.7 kmh 29.83 in1010.2 mb 0.00 in0.0 mm 0.00 in0.0 mm 0.00 in0.0 mm
02:05 AM 64.3°F17.9°C 63.1°F17.3°C 96% 2.6 mph SSW4.2 kmh SSW 6.0 mph9.7 kmh 29.84 in1010.5 mb 0.00 in0.0 mm 0.00 in0.0 mm 0.00 in0.0 mm
02:10 AM 64.3°F17.9°C 63.1°F17.3°C 96% 2.8 mph SW4.5 kmh SW 8.0 mph12.9 kmh 29.83 in1010.2 mb 0.02 in0.5 mm 0.24 in6.1 mm 0.02 in0.5 mm
02:15 AM 64.3°F17.9°C 63.1°F17.3°C 96% 3.0 mph SW4.8 kmh SW 14.0 mph22.5 kmh 29.84 in1010.5 mb 0.02 in0.5 mm 0.00 in0.0 mm 0.03 in0.8 mm
02:20 AM 64.4°F18.0°C 63.2°F17.3°C 96% 2.7 mph SW4.3 kmh SW 14.0 mph22.5 kmh 29.83 in1010.2 mb 0.04 in1.0 mm 0.24 in6.1 mm 0.04 in1.0 mm
02:25 AM 64.4°F18.0°C 63.5°F17.5°C 97% 4.2 mph SW6.8 kmh SW 14.0 mph22.5 kmh 29.83 in1010.2 mb 0.05 in1.3 mm 0.12 in3.0 mm 0.05 in1.3 mm
02:30 AM 64.4°F18.0°C 63.5°F17.5°C 97% 4.1 mph SW6.6 kmh SW 14.0 mph22.5 kmh 29.84 in1010.5 mb 0.06 in1.5 mm 0.12 in3.0 mm 0.06 in1.5 mm
02:35 AM 64.4°F18.0°C 63.5°F17.5°C 97% 3.0 mph SW4.8 kmh SW 10.0 mph16.1 kmh 29.83 in1010.2 mb 0.08 in2.0 mm 0.24 in6.1 mm 0.08 in2.0 mm
02:40 AM 64.3°F17.9°C 63.4°F17.4°C 97% 2.5 mph SW4.0 kmh SW 10.0 mph16.1 kmh 29.83 in1010.2 mb 0.08 in2.0 mm 0.00 in0.0 mm 0.08 in2.0 mm
02:45 AM 64.3°F17.9°C 63.4°F17.4°C 97% 2.8 mph SSW4.5 kmh SSW 9.0 mph14.5 kmh 29.83 in1010.2 mb 0.08 in2.0 mm 0.00 in0.0 mm 0.08 in2.0 mm
02:50 AM 64.2°F17.9°C 63.3°F17.4°C 97% 3.2 mph SW5.1 kmh SW 9.0 mph14.5 kmh 29.83 in1010.2 mb 0.09 in2.3 mm 0.12 in3.0 mm 0.09 in2.3 mm
02:55 AM 64.1°F17.8°C 63.2°F17.3°C 97% 1.4 mph SE2.3 kmh SE 8.0 mph12.9 kmh 29.83 in1010.2 mb 0.11 in2.8 mm 0.24 in6.1 mm 0.11 in2.8 mm
03:00 AM 63.9°F17.7°C 63.0°F17.2°C 97% 1.9 mph S3.1 kmh S 8.0 mph12.9 kmh 29.83 in1010.2 mb 0.12 in3.0 mm 0.01 in0.3 mm 0.12 in3.0 mm
03:05 AM 63.6°F17.6°C 62.4°F16.9°C 96% 3.0 mph SE4.8 kmh SE 8.0 mph12.9 kmh 29.81 in1009.5 mb 0.14 in3.6 mm 0.24 in6.1 mm 0.15 in3.8 mm
03:10 AM 63.5°F17.5°C 62.6°F17.0°C 97% 2.0 mph SSE3.2 kmh SSE 7.0 mph11.3 kmh 29.81 in1009.5 mb 0.14 in3.6 mm 0.00 in0.0 mm 0.16 in4.1 mm
03:15 AM 63.5°F17.5°C 62.6°F17.0°C 97% 1.6 mph SW2.6 kmh SW 7.0 mph11.3 kmh 29.82 in1009.8 mb 0.13 in3.3 mm 0.00 in0.0 mm 0.16 in4.1 mm
03:20 AM 63.4°F17.4°C 62.5°F16.9°C 97% 2.3 mph WSW3.7 kmh WSW 8.0 mph12.9 kmh 29.83 in1010.2 mb 0.12 in3.0 mm 0.00 in0.0 mm 0.16 in4.1 mm
03:25 AM 63.4°F17.4°C 62.5°F16.9°C 97% 1.4 mph WSW2.3 kmh WSW 8.0 mph12.9 kmh 29.81 in1009.5 mb 0.12 in3.0 mm 0.00 in0.0 mm 0.17 in4.3 mm
03:30 AM 63.4°F17.4°C 62.5°F16.9°C 97% Calm Calm 8.0 mph12.9 kmh 29.80 in1009.1 mb 0.12 in3.0 mm 0.00 in0.0 mm 0.18 in4.6 mm
03:35 AM 63.3°F17.4°C 62.4°F16.9°C 97% 1.0 mph SW1.6 kmh SW 8.0 mph12.9 kmh 29.80 in1009.1 mb 0.11 in2.8 mm 0.00 in0.0 mm 0.19 in4.8 mm
03:40 AM 63.3°F17.4°C 62.4°F16.9°C 97% 1.0 mph SW1.6 kmh SW 6.0 mph9.7 kmh 29.80 in1009.1 mb 0.13 in3.3 mm 0.24 in6.1 mm 0.21 in5.3 mm
03:45 AM 63.3°F17.4°C 62.4°F16.9°C 97% 1.0 mph SW1.6 kmh SW 3.0 mph4.8 kmh 29.80 in1009.1 mb 0.14 in3.6 mm 0.12 in3.0 mm 0.22 in5.6 mm
03:50 AM 63.2°F17.3°C 62.3°F16.8°C 97% 1.7 mph SW2.7 kmh SW 4.0 mph6.4 kmh 29.81 in1009.5 mb 0.13 in3.3 mm 0.00 in0.0 mm 0.22 in5.6 mm
03:55 AM 63.2°F17.3°C 62.3°F16.8°C 97% 1.2 mph WSW1.9 kmh WSW 4.0 mph6.4 kmh 29.81 in1009.5 mb 0.12 in3.0 mm 0.00 in0.0 mm 0.23 in5.8 mm
04:00 AM 63.1°F17.3°C 62.2°F16.8°C 97% 2.0 mph SW3.2 kmh SW 4.0 mph6.4 kmh 29.81 in1009.5 mb 0.12 in3.0 mm 0.00 in0.0 mm 0.24 in6.1 mm
04:05 AM 63.1°F17.3°C 62.2°F16.8°C 97% 1.0 mph SE1.6 kmh SE 4.0 mph6.4 kmh 29.81 in1009.5 mb 0.12 in3.0 mm 0.00 in0.0 mm 0.27 in6.9 mm
04:10 AM 63.1°F17.3°C 62.2°F16.8°C 97% Calm Calm 4.0 mph6.4 kmh 29.81 in1009.5 mb 0.12 in3.0 mm 0.00 in0.0 mm 0.28 in7.1 mm
04:15 AM 63.0°F17.2°C 62.1°F16.7°C 97% Calm Calm 4.0 mph6.4 kmh 29.80 in1009.1 mb 0.13 in3.3 mm 0.12 in3.0 mm 0.29 in7.4 mm
04:21 AM 63.0°F17.2°C 62.1°F16.7°C 97% Calm Calm 2.0 mph3.2 kmh 29.80 in1009.1 mb 0.14 in3.6 mm 0.10 in2.5 mm 0.30 in7.6 mm
04:25 AM 62.9°F17.2°C 62.0°F16.7°C 97% 1.3 mph E2.1 kmh E 2.0 mph3.2 kmh 29.79 in1008.8 mb 0.13 in3.3 mm 0.00 in0.0 mm 0.30 in7.6 mm
04:31 AM 62.8°F17.1°C 61.9°F16.6°C 97% 1.0 mph SE1.6 kmh SE 2.0 mph3.2 kmh 29.79 in1008.8 mb 0.13 in3.3 mm 0.00 in0.0 mm 0.31 in7.9 mm
04:36 AM 62.8°F17.1°C 61.9°F16.6°C 97% Calm Calm 2.0 mph3.2 kmh 29.79 in1008.8 mb 0.12 in3.0 mm 0.00 in0.0 mm 0.31 in7.9 mm
04:41 AM 62.7°F17.1°C 61.8°F16.6°C 97% 1.6 mph E2.6 kmh E 3.0 mph4.8 kmh 29.78 in1008.5 mb 0.10 in2.5 mm 0.00 in0.0 mm 0.31 in7.9 mm
04:46 AM 62.6°F17.0°C 61.7°F16.5°C 97% Calm Calm 3.0 mph4.8 kmh 29.78 in1008.5 mb 0.11 in2.8 mm 0.12 in3.0 mm 0.33 in8.4 mm
04:51 AM 62.6°F17.0°C 61.7°F16.5°C 97% Calm Calm 3.0 mph4.8 kmh 29.79 in1008.8 mb 0.12 in3.0 mm 0.12 in3.0 mm 0.34 in8.6 mm
04:56 AM 62.6°F17.0°C 61.7°F16.5°C 97% Calm Calm 3.0 mph4.8 kmh 29.79 in1008.8 mb 0.16 in4.1 mm 0.48 in12.2 mm 0.39 in9.9 mm
05:01 AM 62.6°F17.0°C 61.7°F16.5°C 97% 1.2 mph SW1.9 kmh SW 2.0 mph3.2 kmh 29.81 in1009.5 mb 0.18 in4.6 mm 0.02 in0.5 mm 0.42 in10.7 mm
05:06 AM 62.5°F16.9°C 61.6°F16.4°C 97% 1.7 mph NE2.7 kmh NE 2.0 mph3.2 kmh 29.78 in1008.5 mb 0.34 in8.6 mm 1.92 in48.8 mm 0.61 in15.5 mm
05:11 AM 62.4°F16.9°C 61.5°F16.4°C 97% Calm Calm 2.0 mph3.2 kmh 29.80 in1009.1 mb 0.37 in9.4 mm 0.36 in9.1 mm 0.65 in16.5 mm
05:16 AM 62.4°F16.9°C 61.5°F16.4°C 97% 1.0 mph SE1.6 kmh SE 2.0 mph3.2 kmh 29.80 in1009.1 mb 0.37 in9.4 mm 0.00 in0.0 mm 0.66 in16.8 mm
05:21 AM 62.4°F16.9°C 61.5°F16.4°C 97% 1.4 mph SW2.3 kmh SW 2.0 mph3.2 kmh 29.81 in1009.5 mb 0.40 in10.2 mm 0.36 in9.1 mm 0.70 in17.8 mm
05:26 AM 62.3°F16.8°C 61.7°F16.5°C 98% Calm Calm 2.0 mph3.2 kmh 29.80 in1009.1 mb 0.53 in13.5 mm 1.56 in39.6 mm 0.83 in21.1 mm
05:31 AM 62.3°F16.8°C 61.7°F16.5°C 98% 1.7 mph NE2.7 kmh NE 2.0 mph3.2 kmh 29.79 in1008.8 mb 0.55 in14.0 mm 0.24 in6.1 mm 0.86 in21.8 mm
05:36 AM 62.2°F16.8°C 61.6°F16.4°C 98% Calm Calm 2.0 mph3.2 kmh 29.80 in1009.1 mb 0.57 in14.5 mm 0.24 in6.1 mm 0.88 in22.4 mm
05:41 AM 62.3°F16.8°C 61.7°F16.5°C 98% 1.6 mph SW2.6 kmh SW 3.0 mph4.8 kmh 29.82 in1009.8 mb 0.59 in15.0 mm 0.24 in6.1 mm 0.90 in22.9 mm
05:46 AM 62.3°F16.8°C 61.7°F16.5°C 98% 1.0 mph E1.6 kmh E 3.0 mph4.8 kmh 29.80 in1009.1 mb 0.65 in16.5 mm 0.72 in18.3 mm 0.98 in24.9 mm
05:51 AM 62.2°F16.8°C 61.6°F16.4°C 98% Calm Calm 3.0 mph4.8 kmh 29.81 in1009.5 mb 0.64 in16.3 mm 0.00 in0.0 mm 0.98 in24.9 mm
05:56 AM 62.3°F16.8°C 61.7°F16.5°C 98% 2.0 mph SW3.2 kmh SW 3.0 mph4.8 kmh 29.82 in1009.8 mb 0.59 in15.0 mm 0.00 in0.0 mm 0.98 in24.9 mm
06:01 AM 62.3°F16.8°C 61.7°F16.5°C 98% Calm Calm 3.0 mph4.8 kmh 29.81 in1009.5 mb 0.59 in15.0 mm 0.00 in0.0 mm 1.01 in25.7 mm
06:06 AM 62.3°F16.8°C 61.7°F16.5°C 98% Calm Calm 3.0 mph4.8 kmh 29.81 in1009.5 mb 0.42 in10.7 mm 0.00 in0.0 mm 1.03 in26.2 mm
06:11 AM 62.3°F16.8°C 61.7°F16.5°C 98% Calm Calm 3.0 mph4.8 kmh 29.81 in1009.5 mb 0.42 in10.7 mm 0.00 in0.0 mm 1.07 in27.2 mm
06:16 AM 62.3°F16.8°C 61.7°F16.5°C 98% Calm Calm 3.0 mph4.8 kmh 29.81 in1009.5 mb 0.42 in10.7 mm 0.00 in0.0 mm 1.08 in27.4 mm
06:20 AM 62.3°F16.8°C 61.7°F16.5°C 98% 1.0 mph ESE1.6 kmh ESE 1.0 mph1.6 kmh 29.81 in1009.5 mb 0.39 in9.9 mm 0.00 in0.0 mm 1.08 in27.4 mm
06:25 AM 62.3°F16.8°C 61.7°F16.5°C 98% 1.0 mph SW1.6 kmh SW 1.0 mph1.6 kmh 29.82 in1009.8 mb 0.30 in7.6 mm 0.00 in0.0 mm 1.12 in28.4 mm
06:30 AM 62.4°F16.9°C 61.8°F16.6°C 98% Calm Calm 1.0 mph1.6 kmh 29.82 in1009.8 mb 0.31 in7.9 mm 0.12 in3.0 mm 1.16 in29.5 mm
06:35 AM 62.4°F16.9°C 61.8°F16.6°C 98% 1.0 mph SE1.6 kmh SE 1.0 mph1.6 kmh 29.82 in1009.8 mb 0.30 in7.6 mm 0.00 in0.0 mm 1.17 in29.7 mm
06:40 AM 62.4°F16.9°C 61.8°F16.6°C 98% 1.0 mph SE1.6 kmh SE 3.0 mph4.8 kmh 29.82 in1009.8 mb 0.29 in7.4 mm 0.00 in0.0 mm 1.17 in29.7 mm
06:45 AM 62.4°F16.9°C 61.8°F16.6°C 98% 1.0 mph SE1.6 kmh SE 3.0 mph4.8 kmh 29.82 in1009.8 mb 0.19 in4.8 mm 0.00 in0.0 mm 1.17 in29.7 mm
06:50 AM 62.4°F16.9°C 61.8°F16.6°C 98% Calm Calm 3.0 mph4.8 kmh 29.83 in1010.2 mb 0.19 in4.8 mm 0.00 in0.0 mm 1.17 in29.7 mm
06:55 AM 62.4°F16.9°C 61.8°F16.6°C 98% Calm Calm 3.0 mph4.8 kmh 29.83 in1010.2 mb 0.19 in4.8 mm 0.00 in0.0 mm 1.17 in29.7 mm
07:00 AM 62.4°F16.9°C 61.8°F16.6°C 98% Calm Calm 1.0 mph1.6 kmh 29.83 in1010.2 mb 0.16 in4.1 mm 0.00 in0.0 mm 1.17 in29.7 mm
07:05 AM 62.4°F16.9°C 61.8°F16.6°C 98% 1.0 mph SE1.6 kmh SE 1.0 mph1.6 kmh 29.83 in1010.2 mb 0.15 in3.8 mm 0.00 in0.0 mm 1.17 in29.7 mm
07:10 AM 62.4°F16.9°C 61.8°F16.6°C 98% Calm Calm 1.0 mph1.6 kmh 29.82 in1009.8 mb 0.12 in3.0 mm 0.00 in0.0 mm 1.17 in29.7 mm
07:15 AM 62.5°F16.9°C 61.9°F16.6°C 98% 1.0 mph ESE1.6 kmh ESE 1.0 mph1.6 kmh 29.82 in1009.8 mb 0.09 in2.3 mm 0.00 in0.0 mm 1.17 in29.7 mm
07:20 AM 62.5°F16.9°C 61.9°F16.6°C 98% 1.4 mph SE2.3 kmh SE 2.0 mph3.2 kmh 29.83 in1010.2 mb 0.09 in2.3 mm 0.00 in0.0 mm 1.17 in29.7 mm
07:25 AM 62.6°F17.0°C 62.0°F16.7°C 98% 2.2 mph E3.5 kmh E 4.0 mph6.4 kmh 29.82 in1009.8 mb 0.05 in1.3 mm 0.00 in0.0 mm 1.17 in29.7 mm
07:30 AM 62.6°F17.0°C 62.0°F16.7°C 98% 1.0 mph E1.6 kmh E 4.0 mph6.4 kmh 29.82 in1009.8 mb 0.01 in0.3 mm 0.00 in0.0 mm 1.17 in29.7 mm
07:35 AM 62.7°F17.1°C 62.1°F16.7°C 98% 1.7 mph NE2.7 kmh NE 4.0 mph6.4 kmh 29.82 in1009.8 mb 0.00 in0.0 mm 0.00 in0.0 mm 1.17 in29.7 mm
07:40 AM 62.7°F17.1°C 62.1°F16.7°C 98% 1.5 mph NE2.4 kmh NE 4.0 mph6.4 kmh 29.82 in1009.8 mb 0.00 in0.0 mm 0.00 in0.0 mm 1.17 in29.7 mm
07:45 AM 62.8°F17.1°C 62.2°F16.8°C 98% 1.9 mph ESE3.1 kmh ESE 4.0 mph6.4 kmh 29.83 in1010.2 mb 0.00 in0.0 mm 0.00 in0.0 mm 1.17 in29.7 mm
07:50 AM 62.7°F17.1°C 62.1°F16.7°C 98% 1.4 mph E2.3 kmh E 4.0 mph6.4 kmh 29.82 in1009.8 mb 0.01 in0.3 mm 0.12 in3.0 mm 1.18 in30.0 mm
07:55 AM 62.7°F17.1°C 62.1°F16.7°C 98% 3.2 mph ENE5.1 kmh ENE 5.0 mph8.0 kmh 29.81 in1009.5 mb 0.01 in0.3 mm 0.00 in0.0 mm 1.18 in30.0 mm
08:00 AM 62.8°F17.1°C 62.2°F16.8°C 98% 2.9 mph E4.7 kmh E 6.0 mph9.7 kmh 29.80 in1009.1 mb 0.01 in0.3 mm 0.00 in0.0 mm 1.18 in30.0 mm
08:05 AM 62.9°F17.2°C 62.3°F16.8°C 98% 2.9 mph E4.7 kmh E 6.0 mph9.7 kmh 29.80 in1009.1 mb 0.01 in0.3 mm 0.00 in0.0 mm 1.18 in30.0 mm
08:10 AM 62.9°F17.2°C 62.3°F16.8°C 98% 2.3 mph E3.7 kmh E 6.0 mph9.7 kmh 29.81 in1009.5 mb 0.01 in0.3 mm 0.00 in0.0 mm 1.18 in30.0 mm
08:15 AM 62.9°F17.2°C 62.3°F16.8°C 98% 1.1 mph E1.8 kmh E 5.0 mph8.0 kmh 29.80 in1009.1 mb 0.01 in0.3 mm 0.00 in0.0 mm 1.18 in30.0 mm
08:20 AM 63.0°F17.2°C 62.4°F16.9°C 98% 2.8 mph SE4.5 kmh SE 6.0 mph9.7 kmh 29.80 in1009.1 mb 0.01 in0.3 mm 0.00 in0.0 mm 1.18 in30.0 mm
08:25 AM 63.0°F17.2°C 62.4°F16.9°C 98% 3.9 mph SE6.3 kmh SE 9.0 mph14.5 kmh 29.80 in1009.1 mb 0.01 in0.3 mm 0.00 in0.0 mm 1.18 in30.0 mm
08:30 AM 63.0°F17.2°C 62.4°F16.9°C 98% 3.1 mph SSE5.0 kmh SSE 9.0 mph14.5 kmh 29.82 in1009.8 mb 0.25 in6.4 mm 2.88 in73.2 mm 1.42 in36.1 mm
08:35 AM 63.1°F17.3°C 62.5°F16.9°C 98% 1.0 mph S1.6 kmh S 9.0 mph14.5 kmh 29.83 in1010.2 mb 0.59 in15.0 mm 4.08 in103.6 mm 1.76 in44.7 mm
08:40 AM 63.0°F17.2°C 62.4°F16.9°C 98% 1.5 mph SW2.4 kmh SW 9.0 mph14.5 kmh 29.83 in1010.2 mb 0.60 in15.2 mm 0.12 in3.0 mm 1.77 in45.0 mm
08:45 AM 63.0°F17.2°C 62.4°F16.9°C 98% 2.9 mph SW4.7 kmh SW 9.0 mph14.5 kmh 29.83 in1010.2 mb 0.62 in15.7 mm 0.24 in6.1 mm 1.80 in45.7 mm
08:50 AM 63.0°F17.2°C 62.4°F16.9°C 98% 1.1 mph SSE1.8 kmh SSE 8.0 mph12.9 kmh 29.82 in1009.8 mb 0.64 in16.3 mm 0.24 in6.1 mm 1.82 in46.2 mm
08:55 AM 63.1°F17.3°C 62.5°F16.9°C 98% 1.6 mph SE2.6 kmh SE 8.0 mph12.9 kmh 29.82 in1009.8 mb 0.64 in16.3 mm 0.00 in0.0 mm 1.82 in46.2 mm
09:00 AM 63.3°F17.4°C 62.7°F17.1°C 98% 2.1 mph SE3.4 kmh SE 8.0 mph12.9 kmh 29.82 in1009.8 mb 0.64 in16.3 mm 0.00 in0.0 mm 1.82 in46.2 mm
09:05 AM 63.5°F17.5°C 62.9°F17.2°C 98% 2.6 mph SE4.2 kmh SE 5.0 mph8.0 kmh 29.81 in1009.5 mb 0.64 in16.3 mm 0.00 in0.0 mm 1.82 in46.2 mm
09:10 AM 63.6°F17.6°C 63.0°F17.2°C 98% 2.3 mph SE3.7 kmh SE 5.0 mph8.0 kmh 29.81 in1009.5 mb 0.64 in16.3 mm 0.00 in0.0 mm 1.82 in46.2 mm
09:15 AM 64.0°F17.8°C 63.4°F17.4°C 98% 2.8 mph SE4.5 kmh SE 5.0 mph8.0 kmh 29.81 in1009.5 mb 0.64 in16.3 mm 0.00 in0.0 mm 1.82 in46.2 mm
09:20 AM 63.9°F17.7°C 63.3°F17.4°C 98% 4.7 mph ESE7.6 kmh ESE 7.0 mph11.3 kmh 29.81 in1009.5 mb 0.64 in16.3 mm 0.00 in0.0 mm 1.82 in46.2 mm
09:25 AM 64.1°F17.8°C 63.5°F17.5°C 98% 3.6 mph ESE5.8 kmh ESE 7.0 mph11.3 kmh 29.81 in1009.5 mb 0.64 in16.3 mm 0.00 in0.0 mm 1.82 in46.2 mm
09:30 AM 64.3°F17.9°C 63.7°F17.6°C 98% 1.5 mph E2.4 kmh E 7.0 mph11.3 kmh 29.81 in1009.5 mb 0.40 in10.2 mm 0.00 in0.0 mm 1.82 in46.2 mm
09:35 AM 64.4°F18.0°C 63.8°F17.7°C 98% 2.7 mph SE4.3 kmh SE 7.0 mph11.3 kmh 29.81 in1009.5 mb 0.06 in1.5 mm 0.00 in0.0 mm 1.82 in46.2 mm
09:40 AM 64.3°F17.9°C 63.7°F17.6°C 98% 4.9 mph ESE7.9 kmh ESE 8.0 mph12.9 kmh 29.81 in1009.5 mb 0.05 in1.3 mm 0.00 in0.0 mm 1.82 in46.2 mm
09:45 AM 64.5°F18.1°C 63.9°F17.7°C 98% 3.1 mph ESE5.0 kmh ESE 8.0 mph12.9 kmh 29.81 in1009.5 mb 0.02 in0.5 mm 0.00 in0.0 mm 1.82 in46.2 mm
09:50 AM 64.5°F18.1°C 63.9°F17.7°C 98% 4.6 mph ESE7.4 kmh ESE 9.0 mph14.5 kmh 29.81 in1009.5 mb 0.00 in0.0 mm 0.00 in0.0 mm 1.82 in46.2 mm
09:55 AM 64.6°F18.1°C 64.0°F17.8°C 98% 1.5 mph SE2.4 kmh SE 9.0 mph14.5 kmh 29.81 in1009.5 mb 0.00 in0.0 mm 0.00 in0.0 mm 1.82 in46.2 mm
10:00 AM 64.7°F18.2°C 64.1°F17.8°C 98% 2.3 mph SE3.7 kmh SE 9.0 mph14.5 kmh 29.82 in1009.8 mb 0.00 in0.0 mm 0.00 in0.0 mm 1.82 in46.2 mm
10:05 AM 64.8°F18.2°C 64.2°F17.9°C 98% 2.2 mph SSE3.5 kmh SSE 9.0 mph14.5 kmh 29.82 in1009.8 mb 0.00 in0.0 mm 0.00 in0.0 mm 1.82 in46.2 mm
10:10 AM 64.7°F18.2°C 64.1°F17.8°C 98% 3.3 mph E5.3 kmh E 6.0 mph9.7 kmh 29.82 in1009.8 mb 0.00 in0.0 mm 0.00 in0.0 mm 1.82 in46.2 mm
10:15 AM 64.7°F18.2°C 64.1°F17.8°C 98% 4.2 mph ESE6.8 kmh ESE 7.0 mph11.3 kmh 29.82 in1009.8 mb 0.00 in0.0 mm 0.00 in0.0 mm 1.82 in46.2 mm
10:20 AM 64.7°F18.2°C 64.1°F17.8°C 98% 1.4 mph ESE2.3 kmh ESE 7.0 mph11.3 kmh 29.81 in1009.5 mb 0.00 in0.0 mm 0.00 in0.0 mm 1.82 in46.2 mm
10:25 AM 64.7°F18.2°C 64.1°F17.8°C 98% 1.0 mph SSE1.6 kmh SSE 7.0 mph11.3 kmh 29.82 in1009.8 mb 0.00 in0.0 mm 0.00 in0.0 mm 1.82 in46.2 mm
10:30 AM 64.7°F18.2°C 64.1°F17.8°C 98% 1.9 mph E3.1 kmh E 7.0 mph11.3 kmh 29.82 in1009.8 mb 0.00 in0.0 mm 0.00 in0.0 mm 1.82 in46.2 mm
10:35 AM 64.8°F18.2°C 64.2°F17.9°C 98% 2.3 mph SE3.7 kmh SE 5.0 mph8.0 kmh 29.82 in1009.8 mb 0.00 in0.0 mm 0.00 in0.0 mm 1.82 in46.2 mm
10:40 AM 64.8°F18.2°C 64.2°F17.9°C 98% 3.2 mph ESE5.1 kmh ESE 5.0 mph8.0 kmh 29.82 in1009.8 mb 0.00 in0.0 mm 0.00 in0.0 mm 1.82 in46.2 mm
10:45 AM 64.9°F18.3°C 64.0°F17.8°C 97% 2.4 mph E3.9 kmh E 6.0 mph9.7 kmh 29.81 in1009.5 mb 0.00 in0.0 mm 0.00 in0.0 mm 1.82 in46.2 mm
10:50 AM 65.1°F18.4°C 64.5°F18.1°C 98% 1.5 mph SE2.4 kmh SE 6.0 mph9.7 kmh 29.81 in1009.5 mb 0.00 in0.0 mm 0.00 in0.0 mm 1.82 in46.2 mm
10:55 AM 65.2°F18.4°C 64.6°F18.1°C 98% 2.3 mph SE3.7 kmh SE 6.0 mph9.7 kmh 29.81 in1009.5 mb 0.00 in0.0 mm 0.00 in0.0 mm 1.82 in46.2 mm
11:00 AM 65.4°F18.6°C 64.5°F18.1°C 97% 1.5 mph SE2.4 kmh SE 6.0 mph9.7 kmh 29.81 in1009.5 mb 0.00 in0.0 mm 0.00 in0.0 mm 1.82 in46.2 mm
11:05 AM 65.6°F18.7°C 64.7°F18.2°C 97% 2.9 mph ESE4.7 kmh ESE 6.0 mph9.7 kmh 29.81 in1009.5 mb 0.00 in0.0 mm 0.00 in0.0 mm 1.82 in46.2 mm
11:10 AM 65.9°F18.8°C 65.0°F18.3°C 97% 1.1 mph NE1.8 kmh NE 6.0 mph9.7 kmh 29.81 in1009.5 mb 0.00 in0.0 mm 0.00 in0.0 mm 1.82 in46.2 mm
11:15 AM 66.1°F18.9°C 65.2°F18.4°C 97% 2.9 mph SE4.7 kmh SE 7.0 mph11.3 kmh 29.81 in1009.5 mb 0.00 in0.0 mm 0.00 in0.0 mm 1.82 in46.2 mm
11:22 AM 66.5°F19.2°C 65.6°F18.7°C 97% Calm Calm 8.0 mph12.9 kmh 29.80 in1009.1 mb 0.00 in0.0 mm 0.00 in0.0 mm 1.82 in46.2 mm
11:27 AM 66.7°F19.3°C 65.8°F18.8°C 97% 2.6 mph SE4.2 kmh SE 8.0 mph12.9 kmh 29.80 in1009.1 mb 0.00 in0.0 mm 0.00 in0.0 mm 1.82 in46.2 mm
11:32 AM 66.9°F19.4°C 65.7°F18.7°C 96% 1.9 mph SE3.1 kmh SE 8.0 mph12.9 kmh 29.80 in1009.1 mb 0.00 in0.0 mm 0.00 in0.0 mm 1.82 in46.2 mm
11:37 AM 67.2°F19.6°C 66.0°F18.9°C 96% 1.3 mph S2.1 kmh S 6.0 mph9.7 kmh 29.80 in1009.1 mb 0.00 in0.0 mm 0.00 in0.0 mm 1.82 in46.2 mm
11:42 AM 67.5°F19.7°C 66.0°F18.9°C 95% 1.4 mph SE2.3 kmh SE 6.0 mph9.7 kmh 29.80 in1009.1 mb 0.00 in0.0 mm 0.00 in0.0 mm 1.82 in46.2 mm
11:47 AM 67.6°F19.8°C 65.8°F18.8°C 94% 2.7 mph SE4.3 kmh SE 6.0 mph9.7 kmh 29.80 in1009.1 mb 0.00 in0.0 mm 0.00 in0.0 mm 1.82 in46.2 mm
11:52 AM 67.8°F19.9°C 66.0°F18.9°C 94% 1.1 mph SE1.8 kmh SE 6.0 mph9.7 kmh 29.80 in1009.1 mb 0.00 in0.0 mm 0.00 in0.0 mm 1.82 in46.2 mm
11:57 AM 67.8°F19.9°C 65.7°F18.7°C 93% 3.9 mph SE6.3 kmh SE 7.0 mph11.3 kmh 29.80 in1009.1 mb 0.00 in0.0 mm 0.00 in0.0 mm 1.82 in46.2 mm
12:02 PM 67.5°F19.7°C 65.4°F18.6°C 93% 3.6 mph ESE5.8 kmh ESE 8.0 mph12.9 kmh 29.80 in1009.1 mb 0.00 in0.0 mm 0.00 in0.0 mm 1.82 in46.2 mm
12:07 PM 67.8°F19.9°C 65.7°F18.7°C 93% 1.5 mph E2.4 kmh E 8.0 mph12.9 kmh 29.78 in1008.5 mb 0.00 in0.0 mm 0.00 in0.0 mm 1.82 in46.2 mm
12:12 PM 68.4°F20.2°C 66.0°F18.9°C 92% 2.5 mph ESE4.0 kmh ESE 8.0 mph12.9 kmh 29.78 in1008.5 mb 0.00 in0.0 mm 0.00 in0.0 mm 1.82 in46.2 mm
12:17 PM 69.0°F20.6°C 66.3°F19.1°C 91% 4.2 mph E6.8 kmh E 8.0 mph12.9 kmh 29.77 in1008.1 mb 0.00 in0.0 mm 0.00 in0.0 mm 1.82 in46.2 mm
12:22 PM 69.3°F20.7°C 66.6°F19.2°C 91% 3.0 mph E4.8 kmh E 9.0 mph14.5 kmh 29.77 in1008.1 mb 0.00 in0.0 mm 0.00 in0.0 mm 1.82 in46.2 mm
12:27 PM 69.7°F20.9°C 66.0°F18.9°C 88% 4.1 mph ENE6.6 kmh ENE 10.0 mph16.1 kmh 29.77 in1008.1 mb 0.00 in0.0 mm 0.00 in0.0 mm 1.82 in46.2 mm
12:32 PM 69.8°F21.0°C 66.1°F18.9°C 88% 3.5 mph E5.6 kmh E 10.0 mph16.1 kmh 29.77 in1008.1 mb 0.00 in0.0 mm 0.00 in0.0 mm 1.82 in46.2 mm
12:37 PM 69.9°F21.1°C 66.2°F19.0°C 88% 3.9 mph E6.3 kmh E 10.0 mph16.1 kmh 29.77 in1008.1 mb 0.00 in0.0 mm 0.00 in0.0 mm 1.82 in46.2 mm
12:42 PM 69.9°F21.1°C 65.9°F18.8°C 87% 3.5 mph E5.6 kmh E 10.0 mph16.1 kmh 29.77 in1008.1 mb 0.00 in0.0 mm 0.00 in0.0 mm 1.82 in46.2 mm
12:47 PM 70.1°F21.2°C 66.1°F18.9°C 87% 3.2 mph ESE5.1 kmh ESE 8.0 mph12.9 kmh 29.77 in1008.1 mb 0.00 in0.0 mm 0.00 in0.0 mm 1.82 in46.2 mm
12:52 PM 70.3°F21.3°C 65.9°F18.8°C 86% 4.0 mph SE6.4 kmh SE 8.0 mph12.9 kmh 29.76 in1007.8 mb 0.00 in0.0 mm 0.00 in0.0 mm 1.82 in46.2 mm
12:57 PM 71.0°F21.7°C 66.9°F19.4°C 87% 5.0 mph E8.0 kmh E 7.0 mph11.3 kmh 29.76 in1007.8 mb 0.00 in0.0 mm 0.00 in0.0 mm 1.82 in46.2 mm
01:02 PM 71.0°F21.7°C 66.0°F18.9°C 84% 3.9 mph E6.3 kmh E 8.0 mph12.9 kmh 29.76 in1007.8 mb 0.00 in0.0 mm 0.00 in0.0 mm 1.82 in46.2 mm
01:07 PM 71.5°F21.9°C 66.8°F19.3°C 85% 1.9 mph ESE3.1 kmh ESE 8.0 mph12.9 kmh 29.76 in1007.8 mb 0.00 in0.0 mm 0.00 in0.0 mm 1.82 in46.2 mm
01:12 PM 71.4°F21.9°C 66.0°F18.9°C 83% 3.6 mph E5.8 kmh E 8.0 mph12.9 kmh 29.76 in1007.8 mb 0.00 in0.0 mm 0.00 in0.0 mm 1.82 in46.2 mm
01:17 PM 71.4°F21.9°C 66.4°F19.1°C 84% 2.8 mph SE4.5 kmh SE 8.0 mph12.9 kmh 29.75 in1007.5 mb 0.00 in0.0 mm 0.00 in0.0 mm 1.82 in46.2 mm
01:22 PM 71.6°F22.0°C 65.9°F18.8°C 82% 6.3 mph E10.1 kmh E 11.0 mph17.7 kmh 29.75 in1007.5 mb 0.00 in0.0 mm 0.00 in0.0 mm 1.82 in46.2 mm
01:27 PM 71.6°F22.0°C 66.2°F19.0°C 83% 3.2 mph E5.1 kmh E 11.0 mph17.7 kmh 29.75 in1007.5 mb 0.00 in0.0 mm 0.00 in0.0 mm 1.82 in46.2 mm
01:32 PM 72.2°F22.3°C 66.0°F18.9°C 81% 3.9 mph ENE6.3 kmh ENE 11.0 mph17.7 kmh 29.74 in1007.1 mb 0.00 in0.0 mm 0.00 in0.0 mm 1.82 in46.2 mm
01:37 PM 72.4°F22.4°C 66.7°F19.3°C 82% 5.2 mph NE8.4 kmh NE 11.0 mph17.7 kmh 29.74 in1007.1 mb 0.00 in0.0 mm 0.00 in0.0 mm 1.82 in46.2 mm
01:42 PM 72.2°F22.3°C 66.5°F19.2°C 82% 5.6 mph ENE9.0 kmh ENE 13.0 mph20.9 kmh 29.74 in1007.1 mb 0.00 in0.0 mm 0.00 in0.0 mm 1.82 in46.2 mm
01:47 PM 72.0°F22.2°C 66.2°F19.0°C 82% 6.1 mph E9.8 kmh E 13.0 mph20.9 kmh 29.73 in1006.8 mb 0.00 in0.0 mm 0.00 in0.0 mm 1.82 in46.2 mm
01:52 PM 71.8°F22.1°C 66.0°F18.9°C 82% 4.5 mph ENE7.2 kmh ENE 13.0 mph20.9 kmh 29.73 in1006.8 mb 0.00 in0.0 mm 0.00 in0.0 mm 1.82 in46.2 mm
01:57 PM 72.1°F22.3°C 66.4°F19.1°C 82% 3.1 mph E5.0 kmh E 13.0 mph20.9 kmh 29.73 in1006.8 mb 0.00 in0.0 mm 0.00 in0.0 mm 1.82 in46.2 mm
02:02 PM 72.4°F22.4°C 66.3°F19.1°C 81% 5.6 mph ENE9.0 kmh ENE 11.0 mph17.7 kmh 29.72 in1006.4 mb 0.00 in0.0 mm 0.00 in0.0 mm 1.82 in46.2 mm
02:07 PM 72.4°F22.4°C 66.3°F19.1°C 81% 4.5 mph ENE7.2 kmh ENE 9.0 mph14.5 kmh 29.72 in1006.4 mb 0.00 in0.0 mm 0.00 in0.0 mm 1.82 in46.2 mm
02:12 PM 72.7°F22.6°C 66.6°F19.2°C 81% 4.9 mph E7.9 kmh E 11.0 mph17.7 kmh 29.71 in1006.1 mb 0.00 in0.0 mm 0.00 in0.0 mm 1.82 in46.2 mm
02:17 PM 72.6°F22.6°C 65.8°F18.8°C 79% 6.2 mph E10.0 kmh E 12.0 mph19.3 kmh 29.71 in1006.1 mb 0.00 in0.0 mm 0.00 in0.0 mm 1.82 in46.2 mm
02:22 PM 72.3°F22.4°C 66.2°F19.0°C 81% 2.4 mph NE3.9 kmh NE 12.0 mph19.3 kmh 29.71 in1006.1 mb 0.00 in0.0 mm 0.00 in0.0 mm 1.82 in46.2 mm
02:27 PM 72.2°F22.3°C 65.4°F18.6°C 79% 3.3 mph ENE5.3 kmh ENE 12.0 mph19.3 kmh 29.70 in1005.8 mb 0.00 in0.0 mm 0.00 in0.0 mm 1.82 in46.2 mm
02:32 PM 72.1°F22.3°C 65.0°F18.3°C 78% 5.6 mph ENE9.0 kmh ENE 12.0 mph19.3 kmh 29.70 in1005.8 mb 0.00 in0.0 mm 0.00 in0.0 mm 1.82 in46.2 mm
02:37 PM 72.0°F22.2°C 64.9°F18.3°C 78% 3.0 mph NE4.8 kmh NE 11.0 mph17.7 kmh 29.70 in1005.8 mb 0.00 in0.0 mm 0.00 in0.0 mm 1.82 in46.2 mm
02:42 PM 71.9°F22.2°C 64.8°F18.2°C 78% 4.2 mph ENE6.8 kmh ENE 11.0 mph17.7 kmh 29.69 in1005.4 mb 0.00 in0.0 mm 0.00 in0.0 mm 1.82 in46.2 mm
02:47 PM 71.7°F22.1°C 65.3°F18.5°C 80% 2.9 mph NE4.7 kmh NE 11.0 mph17.7 kmh 29.70 in1005.8 mb 0.00 in0.0 mm 0.00 in0.0 mm 1.82 in46.2 mm
02:52 PM 71.6°F22.0°C 65.9°F18.8°C 82% 1.3 mph NE2.1 kmh NE 9.0 mph14.5 kmh 29.70 in1005.8 mb 0.00 in0.0 mm 0.00 in0.0 mm 1.82 in46.2 mm
02:57 PM 71.3°F21.8°C 66.3°F19.1°C 84% 2.3 mph NE3.7 kmh NE 8.0 mph12.9 kmh 29.70 in1005.8 mb 0.01 in0.3 mm 0.12 in3.0 mm 1.83 in46.5 mm
03:02 PM 70.9°F21.6°C 66.2°F19.0°C 85% 1.5 mph NE2.4 kmh NE 5.0 mph8.0 kmh 29.70 in1005.8 mb 0.01 in0.3 mm 0.00 in0.0 mm 1.83 in46.5 mm
03:07 PM 70.6°F21.4°C 66.5°F19.2°C 87% 1.6 mph NE2.6 kmh NE 4.0 mph6.4 kmh 29.69 in1005.4 mb 0.02 in0.5 mm 0.12 in3.0 mm 1.84 in46.7 mm
03:12 PM 70.1°F21.2°C 66.1°F18.9°C 87% 2.2 mph NE3.5 kmh NE 4.0 mph6.4 kmh 29.69 in1005.4 mb 0.03 in0.8 mm 0.12 in3.0 mm 1.85 in47.0 mm
03:17 PM 69.9°F21.1°C 66.5°F19.2°C 89% 2.2 mph NE3.5 kmh NE 4.0 mph6.4 kmh 29.69 in1005.4 mb 0.05 in1.3 mm 0.24 in6.1 mm 1.87 in47.5 mm
03:22 PM 69.6°F20.9°C 66.2°F19.0°C 89% Calm Calm 4.0 mph6.4 kmh 29.70 in1005.8 mb 0.07 in1.8 mm 0.24 in6.1 mm 1.89 in48.0 mm
03:27 PM 69.3°F20.7°C 66.5°F19.2°C 91% 1.0 mph ESE1.6 kmh ESE 4.0 mph6.4 kmh 29.70 in1005.8 mb 0.08 in2.0 mm 0.12 in3.0 mm 1.90 in48.3 mm
03:32 PM 68.9°F20.5°C 66.5°F19.2°C 92% 1.6 mph WSW2.6 kmh WSW 4.0 mph6.4 kmh 29.70 in1005.8 mb 0.10 in2.5 mm 0.24 in6.1 mm 1.92 in48.8 mm
03:37 PM 68.4°F20.2°C 66.3°F19.1°C 93% 3.0 mph SW4.8 kmh SW 8.0 mph12.9 kmh 29.70 in1005.8 mb 0.15 in3.8 mm 0.60 in15.2 mm 1.97 in50.0 mm
03:42 PM 67.6°F19.8°C 65.5°F18.6°C 93% 3.7 mph WSW6.0 kmh WSW 9.0 mph14.5 kmh 29.70 in1005.8 mb 0.16 in4.1 mm 0.12 in3.0 mm 1.98 in50.3 mm
03:47 PM 67.2°F19.6°C 65.4°F18.6°C 94% 1.8 mph WSW2.9 kmh WSW 9.0 mph14.5 kmh 29.70 in1005.8 mb 0.17 in4.3 mm 0.12 in3.0 mm 1.99 in50.5 mm
03:52 PM 67.0°F19.4°C 65.5°F18.6°C 95% 2.2 mph SW3.5 kmh SW 9.0 mph14.5 kmh 29.70 in1005.8 mb 0.18 in4.6 mm 0.12 in3.0 mm 2.00 in50.8 mm
03:57 PM 66.6°F19.2°C 65.1°F18.4°C 95% 1.3 mph SW2.1 kmh SW 9.0 mph14.5 kmh 29.69 in1005.4 mb 0.18 in4.6 mm 0.00 in0.0 mm 2.01 in51.1 mm
04:02 PM 66.6°F19.2°C 65.1°F18.4°C 95% 1.2 mph W1.9 kmh W 4.0 mph6.4 kmh 29.69 in1005.4 mb 0.18 in4.6 mm 0.00 in0.0 mm 2.01 in51.1 mm
04:07 PM 66.6°F19.2°C 65.4°F18.6°C 96% 1.1 mph W1.8 kmh W 4.0 mph6.4 kmh 29.69 in1005.4 mb 0.18 in4.6 mm 0.00 in0.0 mm 2.02 in51.3 mm
04:12 PM 66.6°F19.2°C 65.4°F18.6°C 96% Calm Calm 3.0 mph4.8 kmh 29.70 in1005.8 mb 0.18 in4.6 mm 0.00 in0.0 mm 2.03 in51.6 mm
04:17 PM 66.7°F19.3°C 65.5°F18.6°C 96% 1.0 mph W1.6 kmh W 2.0 mph3.2 kmh 29.69 in1005.4 mb 0.17 in4.3 mm 0.00 in0.0 mm 2.04 in51.8 mm
04:21 PM 66.8°F19.3°C 65.6°F18.7°C 96% 1.0 mph W1.6 kmh W 2.0 mph3.2 kmh 29.69 in1005.4 mb 0.15 in3.8 mm 0.00 in0.0 mm 2.04 in51.8 mm
04:26 PM 67.0°F19.4°C 65.8°F18.8°C 96% Calm Calm 2.0 mph3.2 kmh 29.69 in1005.4 mb 0.14 in3.6 mm 0.00 in0.0 mm 2.04 in51.8 mm
04:31 PM 67.1°F19.5°C 65.9°F18.8°C 96% Calm Calm 2.0 mph3.2 kmh 29.69 in1005.4 mb 0.12 in3.0 mm 0.00 in0.0 mm 2.04 in51.8 mm
04:36 PM 67.3°F19.6°C 66.1°F18.9°C 96% 1.7 mph SW2.7 kmh SW 3.0 mph4.8 kmh 29.69 in1005.4 mb 0.08 in2.0 mm 0.00 in0.0 mm 2.04 in51.8 mm
04:41 PM 67.2°F19.6°C 66.0°F18.9°C 96% 1.0 mph SW1.6 kmh SW 3.0 mph4.8 kmh 29.69 in1005.4 mb 0.06 in1.5 mm 0.00 in0.0 mm 2.04 in51.8 mm
04:46 PM 67.1°F19.5°C 65.9°F18.8°C 96% 1.0 mph SW1.6 kmh SW 3.0 mph4.8 kmh 29.70 in1005.8 mb 0.05 in1.3 mm 0.00 in0.0 mm 2.04 in51.8 mm
04:51 PM 67.0°F19.4°C 65.8°F18.8°C 96% 1.0 mph SW1.6 kmh SW 3.0 mph4.8 kmh 29.70 in1005.8 mb 0.04 in1.0 mm 0.00 in0.0 mm 2.04 in51.8 mm
04:56 PM 67.0°F19.4°C 65.8°F18.8°C 96% Calm Calm 3.0 mph4.8 kmh 29.69 in1005.4 mb 0.04 in1.0 mm 0.00 in0.0 mm 2.04 in51.8 mm
05:01 PM 67.0°F19.4°C 65.8°F18.8°C 96% 1.0 mph SW1.6 kmh SW 2.0 mph3.2 kmh 29.70 in1005.8 mb 0.03 in0.8 mm 0.00 in0.0 mm 2.04 in51.8 mm
05:06 PM 67.1°F19.5°C 66.2°F19.0°C 97% Calm Calm 2.0 mph3.2 kmh 29.70 in1005.8 mb 0.02 in0.5 mm 0.00 in0.0 mm 2.04 in51.8 mm
05:11 PM 67.1°F19.5°C 66.2°F19.0°C 97% Calm Calm 2.0 mph3.2 kmh 29.70 in1005.8 mb 0.01 in0.3 mm 0.00 in0.0 mm 2.04 in51.8 mm
05:16 PM 67.1°F19.5°C 66.2°F19.0°C 97% 1.0 mph SE1.6 kmh SE 1.0 mph1.6 kmh 29.70 in1005.8 mb 0.00 in0.0 mm 0.00 in0.0 mm 2.04 in51.8 mm
05:21 PM 67.0°F19.4°C 66.1°F18.9°C 97% 1.0 mph SE1.6 kmh SE 1.0 mph1.6 kmh 29.71 in1006.1 mb 0.01 in0.3 mm 0.12 in3.0 mm 2.05 in52.1 mm
05:26 PM 66.9°F19.4°C 66.0°F18.9°C 97% Calm Calm 1.0 mph1.6 kmh 29.70 in1005.8 mb 0.01 in0.3 mm 0.00 in0.0 mm 2.05 in52.1 mm
05:31 PM 67.0°F19.4°C 66.1°F18.9°C 97% Calm Calm 1.0 mph1.6 kmh 29.70 in1005.8 mb 0.01 in0.3 mm 0.00 in0.0 mm 2.05 in52.1 mm
05:36 PM 67.0°F19.4°C 66.1°F18.9°C 97% Calm Calm 1.0 mph1.6 kmh 29.70 in1005.8 mb 0.01 in0.3 mm 0.00 in0.0 mm 2.05 in52.1 mm
05:41 PM 67.0°F19.4°C 66.1°F18.9°C 97% Calm Calm -- 29.70 in1005.8 mb 0.01 in0.3 mm 0.00 in0.0 mm 2.05 in52.1 mm
05:46 PM 67.1°F19.5°C 66.2°F19.0°C 97% Calm Calm -- 29.70 in1005.8 mb 0.01 in0.3 mm 0.00 in0.0 mm 2.05 in52.1 mm
05:51 PM 67.1°F19.5°C 66.2°F19.0°C 97% 1.5 mph SE2.4 kmh SE 2.0 mph3.2 kmh 29.70 in1005.8 mb 0.01 in0.3 mm 0.00 in0.0 mm 2.05 in52.1 mm
05:56 PM 67.0°F19.4°C 66.1°F18.9°C 97% 1.8 mph NE2.9 kmh NE 3.0 mph4.8 kmh 29.70 in1005.8 mb 0.01 in0.3 mm 0.00 in0.0 mm 2.05 in52.1 mm
06:01 PM 66.7°F19.3°C 65.5°F18.6°C 96% 1.2 mph NNE1.9 kmh NNE 3.0 mph4.8 kmh 29.70 in1005.8 mb 0.01 in0.3 mm 0.00 in0.0 mm 2.05 in52.1 mm
06:06 PM 66.3°F19.1°C 65.1°F18.4°C 96% 1.8 mph NE2.9 kmh NE 3.0 mph4.8 kmh 29.70 in1005.8 mb 0.01 in0.3 mm 0.00 in0.0 mm 2.05 in52.1 mm
06:11 PM 65.9°F18.8°C 64.7°F18.2°C 96% 4.2 mph NE6.8 kmh NE 8.0 mph12.9 kmh 29.71 in1006.1 mb 0.01 in0.3 mm 0.00 in0.0 mm 2.05 in52.1 mm
06:16 PM 65.2°F18.4°C 64.0°F17.8°C 96% 5.1 mph NE8.2 kmh NE 8.0 mph12.9 kmh 29.71 in1006.1 mb 0.01 in0.3 mm 0.00 in0.0 mm 2.05 in52.1 mm
06:21 PM 64.7°F18.2°C 63.5°F17.5°C 96% 1.5 mph NE2.4 kmh NE 8.0 mph12.9 kmh 29.71 in1006.1 mb 0.00 in0.0 mm 0.00 in0.0 mm 2.05 in52.1 mm
06:26 PM 64.5°F18.1°C 63.6°F17.6°C 97% 1.8 mph NE2.9 kmh NE 8.0 mph12.9 kmh 29.71 in1006.1 mb 0.00 in0.0 mm 0.00 in0.0 mm 2.05 in52.1 mm
06:31 PM 64.3°F17.9°C 63.4°F17.4°C 97% 1.1 mph NE1.8 kmh NE 8.0 mph12.9 kmh 29.71 in1006.1 mb 0.00 in0.0 mm 0.00 in0.0 mm 2.05 in52.1 mm
06:36 PM 64.2°F17.9°C 63.3°F17.4°C 97% Calm Calm 5.0 mph8.0 kmh 29.71 in1006.1 mb 0.00 in0.0 mm 0.00 in0.0 mm 2.05 in52.1 mm
06:41 PM 64.2°F17.9°C 63.3°F17.4°C 97% 1.0 mph ENE1.6 kmh ENE 5.0 mph8.0 kmh 29.71 in1006.1 mb 0.00 in0.0 mm 0.00 in0.0 mm 2.05 in52.1 mm
06:46 PM 63.9°F17.7°C 63.0°F17.2°C 97% 1.0 mph ENE1.6 kmh ENE 3.0 mph4.8 kmh 29.71 in1006.1 mb 0.00 in0.0 mm 0.00 in0.0 mm 2.05 in52.1 mm
06:51 PM 63.8°F17.7°C 62.9°F17.2°C 97% 3.3 mph NE5.3 kmh NE 5.0 mph8.0 kmh 29.71 in1006.1 mb 0.00 in0.0 mm 0.00 in0.0 mm 2.05 in52.1 mm
06:56 PM 63.8°F17.7°C 62.9°F17.2°C 97% 2.0 mph ENE3.2 kmh ENE 5.0 mph8.0 kmh 29.71 in1006.1 mb 0.00 in0.0 mm 0.00 in0.0 mm 2.05 in52.1 mm
07:01 PM 63.7°F17.6°C 62.8°F17.1°C 97% 1.0 mph NE1.6 kmh NE 5.0 mph8.0 kmh 29.71 in1006.1 mb 0.00 in0.0 mm 0.00 in0.0 mm 2.05 in52.1 mm
07:06 PM 63.7°F17.6°C 62.8°F17.1°C 97% 1.5 mph ENE2.4 kmh ENE 5.0 mph8.0 kmh 29.71 in1006.1 mb 0.00 in0.0 mm 0.00 in0.0 mm 2.05 in52.1 mm
07:11 PM 63.6°F17.6°C 62.7°F17.1°C 97% 1.2 mph ENE1.9 kmh ENE 5.0 mph8.0 kmh 29.71 in1006.1 mb 0.00 in0.0 mm 0.00 in0.0 mm 2.05 in52.1 mm
07:16 PM 63.6°F17.6°C 62.7°F17.1°C 97% 1.3 mph NE2.1 kmh NE 5.0 mph8.0 kmh 29.71 in1006.1 mb 0.00 in0.0 mm 0.00 in0.0 mm 2.05 in52.1 mm
07:21 PM 63.6°F17.6°C 62.7°F17.1°C 97% Calm Calm 3.0 mph4.8 kmh 29.72 in1006.4 mb 0.00 in0.0 mm 0.00 in0.0 mm 2.05 in52.1 mm
07:26 PM 63.7°F17.6°C 63.1°F17.3°C 98% Calm Calm 2.0 mph3.2 kmh 29.72 in1006.4 mb 0.00 in0.0 mm 0.00 in0.0 mm 2.05 in52.1 mm
07:31 PM 63.7°F17.6°C 63.1°F17.3°C 98% 1.0 mph SE1.6 kmh SE 2.0 mph3.2 kmh 29.71 in1006.1 mb 0.00 in0.0 mm 0.00 in0.0 mm 2.05 in52.1 mm
07:36 PM 63.6°F17.6°C 63.0°F17.2°C 98% Calm Calm 1.0 mph1.6 kmh 29.71 in1006.1 mb 0.00 in0.0 mm 0.00 in0.0 mm 2.05 in52.1 mm
07:41 PM 63.5°F17.5°C 62.9°F17.2°C 98% Calm Calm 1.0 mph1.6 kmh 29.71 in1006.1 mb 0.00 in0.0 mm 0.00 in0.0 mm 2.05 in52.1 mm
07:46 PM 63.4°F17.4°C 62.8°F17.1°C 98% Calm Calm 1.0 mph1.6 kmh 29.71 in1006.1 mb 0.00 in0.0 mm 0.00 in0.0 mm 2.05 in52.1 mm
07:51 PM 63.2°F17.3°C 62.3°F16.8°C 97% Calm Calm 1.0 mph1.6 kmh 29.71 in1006.1 mb 0.00 in0.0 mm 0.00 in0.0 mm 2.05 in52.1 mm
07:56 PM 63.1°F17.3°C 62.2°F16.8°C 97% Calm Calm 1.0 mph1.6 kmh 29.71 in1006.1 mb 0.00 in0.0 mm 0.00 in0.0 mm 2.05 in52.1 mm
08:01 PM 63.0°F17.2°C 62.4°F16.9°C 98% Calm Calm 1.0 mph1.6 kmh 29.71 in1006.1 mb 0.00 in0.0 mm 0.00 in0.0 mm 2.05 in52.1 mm
08:06 PM 63.0°F17.2°C 62.4°F16.9°C 98% 1.0 mph W1.6 kmh W 1.0 mph1.6 kmh 29.72 in1006.4 mb 0.00 in0.0 mm 0.00 in0.0 mm 2.05 in52.1 mm
08:11 PM 63.0°F17.2°C 62.4°F16.9°C 98% 1.0 mph W1.6 kmh W 1.0 mph1.6 kmh 29.72 in1006.4 mb 0.00 in0.0 mm 0.00 in0.0 mm 2.05 in52.1 mm
08:16 PM 63.0°F17.2°C 62.4°F16.9°C 98% Calm Calm 1.0 mph1.6 kmh 29.73 in1006.8 mb 0.00 in0.0 mm 0.00 in0.0 mm 2.05 in52.1 mm
08:21 PM 62.9°F17.2°C 62.3°F16.8°C 98% Calm Calm 1.0 mph1.6 kmh 29.73 in1006.8 mb 0.00 in0.0 mm 0.00 in0.0 mm 2.05 in52.1 mm
08:26 PM 62.7°F17.1°C 62.1°F16.7°C 98% Calm Calm 1.0 mph1.6 kmh 29.73 in1006.8 mb 0.00 in0.0 mm 0.00 in0.0 mm 2.05 in52.1 mm
08:31 PM 62.7°F17.1°C 62.1°F16.7°C 98% 1.0 mph W1.6 kmh W 1.0 mph1.6 kmh 29.73 in1006.8 mb 0.00 in0.0 mm 0.00 in0.0 mm 2.05 in52.1 mm
08:36 PM 62.7°F17.1°C 62.1°F16.7°C 98% 1.0 mph W1.6 kmh W 1.0 mph1.6 kmh 29.74 in1007.1 mb 0.00 in0.0 mm 0.00 in0.0 mm 2.05 in52.1 mm
08:41 PM 62.7°F17.1°C 62.1°F16.7°C 98% 1.9 mph WNW3.1 kmh WNW 3.0 mph4.8 kmh 29.74 in1007.1 mb 0.00 in0.0 mm 0.00 in0.0 mm 2.05 in52.1 mm
08:46 PM 62.7°F17.1°C 62.1°F16.7°C 98% 1.8 mph WNW2.9 kmh WNW 4.0 mph6.4 kmh 29.75 in1007.5 mb 0.00 in0.0 mm 0.00 in0.0 mm 2.05 in52.1 mm
08:51 PM 62.7°F17.1°C 61.8°F16.6°C 97% 2.2 mph WNW3.5 kmh WNW 4.0 mph6.4 kmh 29.75 in1007.5 mb 0.00 in0.0 mm 0.00 in0.0 mm 2.05 in52.1 mm
08:56 PM 62.8°F17.1°C 61.9°F16.6°C 97% 1.0 mph W1.6 kmh W 4.0 mph6.4 kmh 29.75 in1007.5 mb 0.00 in0.0 mm 0.00 in0.0 mm 2.05 in52.1 mm
09:01 PM 62.8°F17.1°C 61.9°F16.6°C 97% 1.2 mph WNW1.9 kmh WNW 4.0 mph6.4 kmh 29.75 in1007.5 mb 0.00 in0.0 mm 0.00 in0.0 mm 2.05 in52.1 mm
09:06 PM 63.0°F17.2°C 62.1°F16.7°C 97% 1.0 mph W1.6 kmh W 4.0 mph6.4 kmh 29.74 in1007.1 mb 0.00 in0.0 mm 0.00 in0.0 mm 2.05 in52.1 mm
09:11 PM 63.3°F17.4°C 62.1°F16.7°C 96% 1.0 mph W1.6 kmh W 3.0 mph4.8 kmh 29.74 in1007.1 mb 0.00 in0.0 mm 0.00 in0.0 mm 2.05 in52.1 mm
09:16 PM 63.5°F17.5°C 62.0°F16.7°C 95% Calm Calm 3.0 mph4.8 kmh 29.74 in1007.1 mb 0.00 in0.0 mm 0.00 in0.0 mm 2.05 in52.1 mm
09:20 PM 63.6°F17.6°C 61.8°F16.6°C 94% Calm Calm 3.0 mph4.8 kmh 29.74 in1007.1 mb 0.00 in0.0 mm 0.00 in0.0 mm 2.05 in52.1 mm
09:25 PM 63.5°F17.5°C 61.7°F16.5°C 94% 1.0 mph WNW1.6 kmh WNW 2.0 mph3.2 kmh 29.75 in1007.5 mb 0.00 in0.0 mm 0.00 in0.0 mm 2.05 in52.1 mm
09:30 PM 63.5°F17.5°C 61.7°F16.5°C 94% 1.0 mph WNW1.6 kmh WNW 1.0 mph1.6 kmh 29.74 in1007.1 mb 0.00 in0.0 mm 0.00 in0.0 mm 2.05 in52.1 mm
09:35 PM 63.4°F17.4°C 61.6°F16.4°C 94% Calm Calm 1.0 mph1.6 kmh 29.74 in1007.1 mb 0.00 in0.0 mm 0.00 in0.0 mm 2.05 in52.1 mm
09:40 PM 63.2°F17.3°C 61.4°F16.3°C 94% 1.0 mph WNW1.6 kmh WNW 1.0 mph1.6 kmh 29.75 in1007.5 mb 0.00 in0.0 mm 0.00 in0.0 mm 2.05 in52.1 mm
09:45 PM 63.1°F17.3°C 61.6°F16.4°C 95% 1.0 mph WNW1.6 kmh WNW 1.0 mph1.6 kmh 29.75 in1007.5 mb 0.00 in0.0 mm 0.00 in0.0 mm 2.05 in52.1 mm
09:50 PM 63.0°F17.2°C 61.5°F16.4°C 95% Calm Calm 2.0 mph3.2 kmh 29.75 in1007.5 mb 0.00 in0.0 mm 0.00 in0.0 mm 2.05 in52.1 mm
09:55 PM 63.0°F17.2°C 61.8°F16.6°C 96% 1.0 mph WNW1.6 kmh WNW 2.0 mph3.2 kmh 29.75 in1007.5 mb 0.00 in0.0 mm 0.00 in0.0 mm 2.05 in52.1 mm
10:00 PM 63.0°F17.2°C 61.8°F16.6°C 96% 1.3 mph NW2.1 kmh NW 2.0 mph3.2 kmh 29.75 in1007.5 mb 0.00 in0.0 mm 0.00 in0.0 mm 2.05 in52.1 mm
10:05 PM 63.0°F17.2°C 61.8°F16.6°C 96% 1.6 mph NNW2.6 kmh NNW 3.0 mph4.8 kmh 29.75 in1007.5 mb 0.00 in0.0 mm 0.00 in0.0 mm 2.05 in52.1 mm
10:10 PM 63.0°F17.2°C 61.8°F16.6°C 96% 1.5 mph NW2.4 kmh NW 3.0 mph4.8 kmh 29.75 in1007.5 mb 0.00 in0.0 mm 0.00 in0.0 mm 2.05 in52.1 mm
10:15 PM 63.0°F17.2°C 61.8°F16.6°C 96% Calm Calm 3.0 mph4.8 kmh 29.75 in1007.5 mb 0.00 in0.0 mm 0.00 in0.0 mm 2.05 in52.1 mm
10:20 PM 62.9°F17.2°C 61.7°F16.5°C 96% Calm Calm 3.0 mph4.8 kmh 29.75 in1007.5 mb 0.00 in0.0 mm 0.00 in0.0 mm 2.05 in52.1 mm
10:25 PM 62.7°F17.1°C 61.5°F16.4°C 96% Calm Calm 3.0 mph4.8 kmh 29.75 in1007.5 mb 0.00 in0.0 mm 0.00 in0.0 mm 2.05 in52.1 mm
10:30 PM 62.6°F17.0°C 61.4°F16.3°C 96% 1.0 mph NW1.6 kmh NW 1.0 mph1.6 kmh 29.75 in1007.5 mb 0.00 in0.0 mm 0.00 in0.0 mm 2.05 in52.1 mm
10:35 PM 62.4°F16.9°C 61.5°F16.4°C 97% 1.0 mph NW1.6 kmh NW 1.0 mph1.6 kmh 29.75 in1007.5 mb 0.00 in0.0 mm 0.00 in0.0 mm 2.05 in52.1 mm
10:40 PM 62.3°F16.8°C 61.4°F16.3°C 97% Calm Calm 1.0 mph1.6 kmh 29.75 in1007.5 mb 0.00 in0.0 mm 0.00 in0.0 mm 2.05 in52.1 mm
10:45 PM 62.3°F16.8°C 61.4°F16.3°C 97% Calm Calm 1.0 mph1.6 kmh 29.75 in1007.5 mb 0.00 in0.0 mm 0.00 in0.0 mm 2.05 in52.1 mm
10:50 PM 62.2°F16.8°C 61.3°F16.3°C 97% Calm Calm 1.0 mph1.6 kmh 29.76 in1007.8 mb 0.00 in0.0 mm 0.00 in0.0 mm 2.05 in52.1 mm
10:55 PM 62.2°F16.8°C 61.3°F16.3°C 97% Calm Calm 1.0 mph1.6 kmh 29.76 in1007.8 mb 0.00 in0.0 mm 0.00 in0.0 mm 2.05 in52.1 mm
11:00 PM 62.2°F16.8°C 61.3°F16.3°C 97% Calm Calm 1.0 mph1.6 kmh 29.76 in1007.8 mb 0.00 in0.0 mm 0.00 in0.0 mm 2.05 in52.1 mm
11:05 PM 62.3°F16.8°C 61.4°F16.3°C 97% 1.0 mph N1.6 kmh N 1.0 mph1.6 kmh 29.76 in1007.8 mb 0.00 in0.0 mm 0.00 in0.0 mm 1.58 in40.1 mm
11:10 PM 62.3°F16.8°C 61.4°F16.3°C 97% Calm Calm 1.0 mph1.6 kmh 29.76 in1007.8 mb 0.00 in0.0 mm 0.00 in0.0 mm 1.58 in40.1 mm
11:15 PM 62.4°F16.9°C 61.5°F16.4°C 97% Calm Calm 1.0 mph1.6 kmh 29.76 in1007.8 mb 0.00 in0.0 mm 0.00 in0.0 mm 1.58 in40.1 mm
11:20 PM 62.4°F16.9°C 61.5°F16.4°C 97% Calm Calm 1.0 mph1.6 kmh 29.76 in1007.8 mb 0.00 in0.0 mm 0.00 in0.0 mm 1.58 in40.1 mm
11:25 PM 62.4°F16.9°C 61.5°F16.4°C 97% Calm Calm -- 29.76 in1007.8 mb 0.00 in0.0 mm 0.00 in0.0 mm 1.58 in40.1 mm
11:30 PM 62.3°F16.8°C 61.4°F16.3°C 97% Calm Calm -- 29.76 in1007.8 mb 0.00 in0.0 mm 0.00 in0.0 mm 1.58 in40.1 mm
11:35 PM 62.4°F16.9°C 61.5°F16.4°C 97% Calm Calm -- 29.76 in1007.8 mb 0.00 in0.0 mm 0.00 in0.0 mm 1.58 in40.1 mm
11:40 PM 62.4°F16.9°C 61.5°F16.4°C 97% Calm Calm -- 29.76 in1007.8 mb 0.00 in0.0 mm 0.00 in0.0 mm 1.58 in40.1 mm
11:45 PM 62.4°F16.9°C 61.5°F16.4°C 97% Calm Calm -- 29.77 in1008.1 mb 0.00 in0.0 mm 0.00 in0.0 mm 1.58 in40.1 mm
11:50 PM 62.3°F16.8°C 61.4°F16.3°C 97% 1.0 mph NNW1.6 kmh NNW 1.0 mph1.6 kmh 29.77 in1008.1 mb 0.00 in0.0 mm 0.00 in0.0 mm 1.58 in40.1 mm
11:55 PM 62.3°F16.8°C 61.4°F16.3°C 97% 1.0 mph NNW1.6 kmh NNW 1.0 mph1.6 kmh 29.76 in1007.8 mb 0.00 in0.0 mm 0.00 in0.0 mm 1.58 in40.1 mm